Buckden, United Kingdom
Current Conditions -  °F | °C
As of 2:20 PM on Wednesday 28 Jan 2015 (Local Time) from EGSC Reporting Station
Few Clouds Few Clouds  
Wind Chill:   Ceiling: Unl
Heat Index:   Visibility: 6mi
Dew Point: -2°   Wind: 28mph
Humidity: 57%   Direction: 270°W
Pressure: 29.47"   Gusts: 39mph
Location:  52.29°N, 0.25°W
Report Text: EGSC 281420Z 27024G34KT 240V310 9999 FEW020 06/M02 Q0998
Loading
Personal Weather Stations






























Interactive Weather Map New forecast layout! Learn more

10-Day Weather Forecast

Advertisements
Track Severe Weather on mobile